createdAt,value
2019-05-30T00:00:24.845Z,11.30
2019-05-30T00:02:53.940Z,11.30
2019-05-30T00:05:20.964Z,11.30
2019-05-30T00:07:48.972Z,11.30
2019-05-30T00:10:17.013Z,11.20
2019-05-30T00:12:45.027Z,11.20
2019-05-30T00:15:13.863Z,11.10
2019-05-30T00:17:41.915Z,11.10
2019-05-30T00:20:09.940Z,11.00
2019-05-30T00:22:37.937Z,11.00
2019-05-30T00:25:06.754Z,10.90
2019-05-30T00:27:34.799Z,10.80
2019-05-30T00:30:03.567Z,10.80
2019-05-30T00:32:31.643Z,10.60
2019-05-30T00:35:01.919Z,10.60
2019-05-30T00:37:29.246Z,10.70
2019-05-30T00:39:57.840Z,10.60
2019-05-30T00:42:26.077Z,10.60
2019-05-30T00:44:54.114Z,10.60
2019-05-30T00:47:22.145Z,10.60
2019-05-30T00:49:50.168Z,10.50
2019-05-30T00:52:18.979Z,10.50
2019-05-30T00:54:47.781Z,10.50
2019-05-30T00:57:15.817Z,10.50
2019-05-30T00:59:44.613Z,10.30
2019-05-30T01:02:13.415Z,10.20
2019-05-30T01:04:41.467Z,10.20
2019-05-30T01:07:10.272Z,10.20
2019-05-30T01:09:38.317Z,10.20
2019-05-30T01:12:07.475Z,10.20
2019-05-30T01:14:35.182Z,10.20
2019-05-30T01:17:05.173Z,10.30
2019-05-30T01:19:32.013Z,10.30
2019-05-30T01:22:01.207Z,10.30
2019-05-30T01:24:28.081Z,10.20
2019-05-30T01:26:57.149Z,10.20
2019-05-30T01:29:24.169Z,10.20
2019-05-30T01:31:52.188Z,10.20
2019-05-30T01:34:20.981Z,10.10
2019-05-30T01:36:49.772Z,10.10
2019-05-30T01:39:17.799Z,10.10
2019-05-30T01:41:45.818Z,10.20
2019-05-30T01:44:13.870Z,10.20
2019-05-30T01:46:42.679Z,10.10
2019-05-30T01:49:11.491Z,10.10
2019-05-30T01:51:39.516Z,10.10
2019-05-30T01:54:08.803Z,10.00
2019-05-30T01:56:37.105Z,10.00
2019-05-30T01:59:05.136Z,9.90
2019-05-30T02:01:33.145Z,9.90
2019-05-30T02:04:01.207Z,9.90
2019-05-30T02:06:29.232Z,9.80
2019-05-30T02:08:57.238Z,9.70
2019-05-30T02:11:26.030Z,9.50
2019-05-30T02:13:54.025Z,9.50
2019-05-30T02:16:22.177Z,9.50
2019-05-30T02:18:50.157Z,9.40
2019-05-30T02:21:18.133Z,9.40
2019-05-30T02:23:46.197Z,9.40
2019-05-30T02:26:14.220Z,9.40
2019-05-30T02:28:42.257Z,9.40
2019-05-30T02:31:12.184Z,9.40
2019-05-30T02:33:39.077Z,9.40
2019-05-30T02:36:08.510Z,9.30
2019-05-30T02:38:35.183Z,9.40
2019-05-30T02:41:03.409Z,9.40
2019-05-30T02:43:31.238Z,9.40
2019-05-30T02:46:00.836Z,9.30
2019-05-30T02:48:27.288Z,9.40
2019-05-30T02:50:56.120Z,9.30
2019-05-30T02:53:24.172Z,9.30
2019-05-30T02:55:52.190Z,9.30
2019-05-30T02:58:20.267Z,9.30
2019-05-30T03:00:48.326Z,9.10
2019-05-30T03:03:16.341Z,9.10
2019-05-30T03:05:44.383Z,9.20
2019-05-30T03:08:14.398Z,9.20
2019-05-30T03:10:40.419Z,9.20
2019-05-30T03:13:10.617Z,9.30
2019-05-30T03:15:37.206Z,9.30
2019-05-30T03:18:07.300Z,9.20
2019-05-30T03:20:33.222Z,9.20
2019-05-30T03:23:03.213Z,9.10
2019-05-30T03:25:29.269Z,8.90
2019-05-30T03:27:58.073Z,9.10
2019-05-30T03:30:28.928Z,9.10
2019-05-30T03:33:28.995Z,9.10
2019-05-30T03:35:29.503Z,9.10
2019-05-30T03:37:51.670Z,9.10
2019-05-30T03:40:22.366Z,9.20
2019-05-30T03:42:49.283Z,9.40
2019-05-30T03:45:18.051Z,9.40
2019-05-30T03:47:47.507Z,9.40
2019-05-30T03:50:17.615Z,9.30
2019-05-30T03:52:44.281Z,9.30
2019-05-30T03:55:14.433Z,9.30
2019-05-30T03:57:42.999Z,9.20
2019-05-30T04:00:19.641Z,9.40
2019-05-30T04:02:57.450Z,9.40
2019-05-30T04:05:21.797Z,9.40
2019-05-30T04:07:49.811Z,9.40
2019-05-30T04:10:19.679Z,9.40
2019-05-30T04:12:55.714Z,9.40
2019-05-30T04:15:25.656Z,9.50
2019-05-30T04:17:53.696Z,9.70
2019-05-30T04:20:23.229Z,9.80
2019-05-30T04:22:49.758Z,10.00
2019-05-30T04:25:18.678Z,10.20
2019-05-30T04:27:45.879Z,10.40
2019-05-30T04:30:14.412Z,10.60
2019-05-30T04:32:41.926Z,10.60
2019-05-30T04:35:10.285Z,10.60
2019-05-30T04:37:38.015Z,10.40
2019-05-30T04:40:06.760Z,10.40
2019-05-30T04:42:34.781Z,10.70
2019-05-30T04:45:03.620Z,10.90
2019-05-30T04:47:31.659Z,10.80
2019-05-30T04:49:59.704Z,10.90
2019-05-30T04:52:28.521Z,11.10
2019-05-30T04:54:57.301Z,11.40
2019-05-30T04:57:27.113Z,11.40
2019-05-30T04:59:54.174Z,11.60
2019-05-30T05:02:23.298Z,11.60
2019-05-30T05:04:51.057Z,12.00
2019-05-30T05:07:19.880Z,11.90
2019-05-30T05:09:47.120Z,12.40
2019-05-30T05:12:16.094Z,12.80
2019-05-30T05:14:43.254Z,12.40
2019-05-30T05:17:12.706Z,12.60
2019-05-30T05:19:40.041Z,15.10
2019-05-30T05:22:08.879Z,15.00
2019-05-30T05:24:36.897Z,15.00
2019-05-30T05:27:05.723Z,15.80
2019-05-30T05:29:33.740Z,15.80
2019-05-30T05:32:01.748Z,16.00
2019-05-30T05:34:29.785Z,16.30
2019-05-30T05:36:57.812Z,16.10
2019-05-30T05:39:25.833Z,15.90
2019-05-30T05:41:54.633Z,16.40
2019-05-30T05:44:24.543Z,16.60
2019-05-30T05:46:51.473Z,16.60
2019-05-30T05:49:20.608Z,16.50
2019-05-30T05:51:49.091Z,16.50
2019-05-30T05:54:17.090Z,16.50
2019-05-30T05:56:45.124Z,16.60
2019-05-30T05:59:13.153Z,16.80
2019-05-30T06:01:41.209Z,17.00
2019-05-30T06:04:13.184Z,16.70
2019-05-30T06:06:37.245Z,16.20
2019-05-30T06:09:05.273Z,16.70
2019-05-30T06:11:33.309Z,17.10
2019-05-30T06:14:02.137Z,17.40
2019-05-30T06:16:30.172Z,17.40
2019-05-30T06:18:58.952Z,17.20
2019-05-30T06:21:27.752Z,17.00
2019-05-30T06:23:55.760Z,16.90
2019-05-30T06:26:24.331Z,17.10
2019-05-30T06:28:51.846Z,17.20
2019-05-30T06:31:20.654Z,17.30
2019-05-30T06:33:48.692Z,17.30
2019-05-30T06:36:16.732Z,17.50
2019-05-30T06:38:44.743Z,17.50
2019-05-30T06:41:13.589Z,18.20
2019-05-30T06:43:41.644Z,18.20
2019-05-30T06:46:09.670Z,18.30
2019-05-30T06:48:38.501Z,18.30
2019-05-30T06:51:06.590Z,18.30
2019-05-30T06:53:35.326Z,18.50
2019-05-30T06:56:04.116Z,18.50
2019-05-30T06:58:47.374Z,18.50
2019-05-30T07:01:00.165Z,18.20
2019-05-30T07:03:28.533Z,18.40
2019-05-30T07:05:56.717Z,18.10
2019-05-30T07:08:24.694Z,17.70
2019-05-30T07:10:52.341Z,18.00
2019-05-30T07:13:21.133Z,17.80
2019-05-30T07:15:49.159Z,17.70
2019-05-30T07:18:17.180Z,17.60
2019-05-30T07:20:45.209Z,16.40
2019-05-30T07:23:13.245Z,15.90
2019-05-30T07:25:41.265Z,17.30
2019-05-30T07:28:10.061Z,19.10
2019-05-30T07:30:38.090Z,19.10
2019-05-30T07:33:06.117Z,19.50
2019-05-30T07:35:34.201Z,20.20
2019-05-30T07:38:02.199Z,19.90
2019-05-30T07:40:30.643Z,20.40
2019-05-30T07:42:58.298Z,20.80
2019-05-30T07:45:27.099Z,20.00
2019-05-30T07:47:55.125Z,20.00
2019-05-30T07:50:23.929Z,17.10
2019-05-30T07:52:51.967Z,17.00
2019-05-30T07:55:19.962Z,16.40
2019-05-30T07:57:48.002Z,15.90
2019-05-30T08:00:16.070Z,15.40
2019-05-30T08:02:44.142Z,15.00
2019-05-30T08:05:23.737Z,16.80
2019-05-30T08:07:40.213Z,18.70
2019-05-30T08:10:09.041Z,20.70
2019-05-30T08:12:38.264Z,20.70
2019-05-30T08:15:05.127Z,21.00
2019-05-30T08:17:33.679Z,21.10
2019-05-30T08:20:01.235Z,19.50
2019-05-30T08:22:29.932Z,18.20
2019-05-30T08:24:57.294Z,17.50
2019-05-30T08:27:25.330Z,17.50
2019-05-30T08:29:53.350Z,17.40
2019-05-30T08:32:22.167Z,19.80
2019-05-30T08:34:50.192Z,19.80
2019-05-30T08:37:18.222Z,20.60
2019-05-30T08:39:46.278Z,21.30
2019-05-30T08:42:14.364Z,22.10
2019-05-30T08:44:42.496Z,22.80
2019-05-30T08:47:11.612Z,21.90
2019-05-30T08:49:40.381Z,21.80
2019-05-30T08:52:07.656Z,20.50
2019-05-30T08:54:36.451Z,19.30
2019-05-30T08:57:03.898Z,18.30
2019-05-30T08:59:32.344Z,18.70
2019-05-30T09:01:59.935Z,20.90
2019-05-30T09:04:27.981Z,20.20
2019-05-30T09:06:56.017Z,18.90
2019-05-30T09:09:24.030Z,18.00
2019-05-30T09:11:52.099Z,17.50
2019-05-30T09:14:20.166Z,17.10
2019-05-30T09:16:49.371Z,17.50
2019-05-30T09:19:16.229Z,18.80
2019-05-30T09:21:45.395Z,19.90
2019-05-30T09:24:12.310Z,21.00
2019-05-30T09:26:45.093Z,21.60
2019-05-30T09:29:08.403Z,22.20
2019-05-30T09:31:36.417Z,22.40
2019-05-30T09:34:04.511Z,23.00
2019-05-30T09:36:33.301Z,23.20
2019-05-30T09:39:02.151Z,22.80
2019-05-30T09:41:30.175Z,22.80
2019-05-30T09:43:58.234Z,23.00
2019-05-30T09:46:27.057Z,21.60
2019-05-30T09:48:55.107Z,21.50
2019-05-30T09:51:23.133Z,19.70
2019-05-30T09:53:51.181Z,19.70
2019-05-30T09:56:19.243Z,20.80
2019-05-30T09:58:47.758Z,22.20
2019-05-30T10:01:16.141Z,22.40
2019-05-30T10:03:45.173Z,22.40
2019-05-30T10:06:28.165Z,23.00
2019-05-30T10:08:40.200Z,22.80
2019-05-30T10:11:08.238Z,23.10
2019-05-30T10:13:37.065Z,22.60
2019-05-30T10:16:05.134Z,22.60
2019-05-30T10:18:33.197Z,23.00
2019-05-30T10:21:01.221Z,23.40
2019-05-30T10:23:30.014Z,22.60
2019-05-30T10:25:58.825Z,23.00
2019-05-30T10:28:26.864Z,23.10
2019-05-30T10:30:58.930Z,23.40
2019-05-30T10:33:22.914Z,23.90
2019-05-30T10:35:53.077Z,23.40
2019-05-30T10:38:20.212Z,23.30
2019-05-30T10:40:48.830Z,22.40
2019-05-30T10:43:16.670Z,22.50
2019-05-30T10:45:44.852Z,22.50
2019-05-30T10:48:13.511Z,21.20
2019-05-30T10:50:41.557Z,21.20
2019-05-30T10:53:10.391Z,20.20
2019-05-30T10:55:38.424Z,20.10
2019-05-30T10:58:06.424Z,19.90
2019-05-30T11:00:50.879Z,19.40
2019-05-30T11:03:18.338Z,20.10
2019-05-30T11:05:47.632Z,20.10
2019-05-30T11:08:20.269Z,19.80
2019-05-30T11:10:49.069Z,20.30
2019-05-30T11:13:17.861Z,21.00
2019-05-30T11:15:46.866Z,21.00
2019-05-30T11:18:14.738Z,22.00
2019-05-30T11:20:42.982Z,22.00
2019-05-30T11:23:11.603Z,22.90
2019-05-30T11:25:40.370Z,22.90
2019-05-30T11:28:09.150Z,21.80
2019-05-30T11:30:37.189Z,21.80
2019-05-30T11:33:05.228Z,20.90
2019-05-30T11:35:33.257Z,19.80
2019-05-30T11:38:01.257Z,19.30
2019-05-30T11:40:29.296Z,19.50
2019-05-30T11:42:58.108Z,21.00
2019-05-30T11:45:26.125Z,21.00
2019-05-30T11:47:55.752Z,23.40
2019-05-30T11:50:22.938Z,23.30
2019-05-30T11:52:51.696Z,22.80
2019-05-30T11:55:19.818Z,20.70
2019-05-30T11:57:47.853Z,20.70
2019-05-30T12:00:15.920Z,21.80
2019-05-30T12:02:43.945Z,23.00
2019-05-30T12:05:11.973Z,22.90
2019-05-30T12:07:39.998Z,22.90
2019-05-30T12:10:08.009Z,23.10
2019-05-30T12:12:36.085Z,23.50
2019-05-30T12:15:04.888Z,21.70
2019-05-30T12:17:32.945Z,21.60
2019-05-30T12:20:01.917Z,21.00
2019-05-30T12:22:29.028Z,20.40
2019-05-30T12:24:57.773Z,20.10
2019-05-30T12:27:25.114Z,20.40
2019-05-30T12:29:54.093Z,20.10
2019-05-30T12:32:21.890Z,20.20
2019-05-30T12:34:49.925Z,20.50
2019-05-30T12:37:17.997Z,22.10
2019-05-30T12:39:46.020Z,23.20
2019-05-30T12:42:14.062Z,23.70
2019-05-30T12:44:42.082Z,22.60
2019-05-30T12:47:10.888Z,20.60
2019-05-30T12:49:39.657Z,20.80
2019-05-30T12:52:08.491Z,21.90
2019-05-30T12:54:36.553Z,21.90
2019-05-30T12:57:04.593Z,22.10
2019-05-30T12:59:33.393Z,22.60
2019-05-30T13:02:01.434Z,22.60
2019-05-30T13:04:29.459Z,23.10
2019-05-30T13:06:57.737Z,23.40
2019-05-30T13:09:25.545Z,23.80
2019-05-30T13:11:54.290Z,24.20
2019-05-30T13:14:21.678Z,23.10
2019-05-30T13:16:49.726Z,21.90
2019-05-30T13:19:17.760Z,21.20
2019-05-30T13:21:45.830Z,21.00
2019-05-30T13:24:13.900Z,20.70
2019-05-30T13:26:41.971Z,20.30
2019-05-30T13:29:10.047Z,20.00
2019-05-30T13:31:38.812Z,20.80
2019-05-30T13:34:07.188Z,20.70
2019-05-30T13:36:34.888Z,21.80
2019-05-30T13:39:03.225Z,23.10
2019-05-30T13:41:31.705Z,23.90
2019-05-30T13:44:03.336Z,23.20
2019-05-30T13:46:28.548Z,23.20
2019-05-30T13:48:56.591Z,23.10
2019-05-30T13:51:25.429Z,23.00
2019-05-30T13:53:54.267Z,22.80
2019-05-30T13:56:22.299Z,22.90
2019-05-30T13:58:50.323Z,22.70
2019-05-30T14:01:18.325Z,22.60
2019-05-30T14:03:47.165Z,22.80
2019-05-30T14:06:15.240Z,22.80
2019-05-30T14:08:43.301Z,23.00
2019-05-30T14:11:11.325Z,22.60
2019-05-30T14:13:39.366Z,22.70
2019-05-30T14:16:07.429Z,22.80
2019-05-30T14:18:35.561Z,21.80
2019-05-30T14:21:03.695Z,21.20
2019-05-30T14:23:31.690Z,21.10
2019-05-30T14:25:59.711Z,21.30
2019-05-30T14:28:27.712Z,21.50
2019-05-30T14:30:56.499Z,22.30
2019-05-30T14:33:25.413Z,22.40
2019-05-30T14:35:53.466Z,22.40
2019-05-30T14:38:22.294Z,22.60
2019-05-30T14:40:50.310Z,22.60
2019-05-30T14:43:18.309Z,22.00
2019-05-30T14:45:46.379Z,21.90
2019-05-30T14:48:14.434Z,22.30
2019-05-30T14:50:43.218Z,21.40
2019-05-30T14:53:11.252Z,21.40
2019-05-30T14:55:39.668Z,20.90
2019-05-30T14:58:09.040Z,20.70
2019-05-30T15:00:35.794Z,20.20
2019-05-30T15:03:08.365Z,20.00
2019-05-30T15:05:31.824Z,19.80
2019-05-30T15:07:59.837Z,19.80
2019-05-30T15:10:27.886Z,19.80
2019-05-30T15:12:56.684Z,19.90
2019-05-30T15:15:24.705Z,19.90
2019-05-30T15:17:52.707Z,20.00
2019-05-30T15:20:21.506Z,20.90
2019-05-30T15:22:49.541Z,20.90
2019-05-30T15:25:18.207Z,21.10
2019-05-30T15:27:45.596Z,21.30
2019-05-30T15:30:14.793Z,20.70
2019-05-30T15:32:42.429Z,20.60
2019-05-30T15:38:15.005Z,19.90
2019-05-30T15:40:42.618Z,19.80
2019-05-30T15:43:11.377Z,19.80
2019-05-30T15:45:38.682Z,20.40
2019-05-30T15:48:08.134Z,20.60
2019-05-30T15:50:34.696Z,20.80
2019-05-30T15:53:02.739Z,21.00
2019-05-30T15:55:30.874Z,20.90
2019-05-30T15:57:59.652Z,20.80
2019-05-30T16:00:27.656Z,20.80
2019-05-30T16:02:55.727Z,20.90
2019-05-30T16:05:23.774Z,20.80
2019-05-30T16:07:51.786Z,20.70
2019-05-30T16:10:20.972Z,20.30
2019-05-30T16:12:47.853Z,19.90
2019-05-30T16:15:15.896Z,19.60
2019-05-30T16:17:43.966Z,19.50
2019-05-30T16:20:12.038Z,19.50
2019-05-30T16:22:39.991Z,19.60
2019-05-30T16:25:08.032Z,19.60
2019-05-30T16:27:36.049Z,19.60
2019-05-30T16:30:04.952Z,19.50
2019-05-30T16:32:32.904Z,19.50
2019-05-30T16:35:01.742Z,19.70
2019-05-30T16:37:29.789Z,19.70
2019-05-30T16:40:05.746Z,19.60
2019-05-30T16:42:26.539Z,19.70
2019-05-30T16:44:54.723Z,19.90
2019-05-30T16:47:22.806Z,19.90
2019-05-30T16:49:51.581Z,20.10
2019-05-30T16:52:20.817Z,20.10
2019-05-30T16:54:47.704Z,20.10
2019-05-30T16:57:16.472Z,20.00
2019-05-30T16:59:43.809Z,19.90
2019-05-30T17:02:11.841Z,19.70
2019-05-30T17:04:39.915Z,19.60
2019-05-30T17:07:07.936Z,19.70
2019-05-30T17:09:35.965Z,19.70
2019-05-30T17:12:04.043Z,19.60
2019-05-30T17:14:32.122Z,19.50
2019-05-30T17:17:02.916Z,19.50
2019-05-30T17:19:29.034Z,19.50
2019-05-30T17:21:57.851Z,19.50
2019-05-30T17:24:27.154Z,19.50
2019-05-30T17:26:53.942Z,19.40
2019-05-30T17:29:23.560Z,19.40
2019-05-30T17:31:50.844Z,19.40
2019-05-30T17:34:19.937Z,19.30
2019-05-30T17:36:46.980Z,19.20
2019-05-30T17:39:15.006Z,19.20
2019-05-30T17:41:43.858Z,19.10
2019-05-30T17:44:11.916Z,19.00
2019-05-30T17:46:39.978Z,18.90
2019-05-30T17:49:08.037Z,18.90
2019-05-30T17:51:36.182Z,18.90
2019-05-30T17:54:04.205Z,18.80
2019-05-30T17:56:32.236Z,18.80
2019-05-30T17:59:01.028Z,18.70
2019-05-30T18:01:30.542Z,18.60
2019-05-30T18:03:57.851Z,18.60
2019-05-30T18:06:26.564Z,18.70
2019-05-30T18:08:53.913Z,18.60
2019-05-30T18:11:22.899Z,18.50
2019-05-30T18:13:51.504Z,18.50
2019-05-30T18:16:19.506Z,18.50
2019-05-30T18:18:47.537Z,18.50
2019-05-30T18:21:16.366Z,18.60
2019-05-30T18:23:44.934Z,18.60
2019-05-30T18:26:13.181Z,18.30
2019-05-30T18:28:41.985Z,18.20
2019-05-30T18:31:10.011Z,18.20
2019-05-30T18:33:38.038Z,18.00
2019-05-30T18:36:06.092Z,18.00
2019-05-30T18:38:34.105Z,17.90
2019-05-30T18:41:11.326Z,17.60
2019-05-30T18:43:30.925Z,17.50
2019-05-30T18:45:58.240Z,17.50
2019-05-30T18:48:27.250Z,17.40
2019-05-30T18:50:54.306Z,17.40
2019-05-30T18:53:22.338Z,17.30
2019-05-30T18:55:50.370Z,17.20
2019-05-30T18:58:18.394Z,17.20
2019-05-30T19:00:47.181Z,17.20
2019-05-30T19:03:15.186Z,17.20
2019-05-30T19:05:43.216Z,17.10
2019-05-30T19:08:12.011Z,16.90
2019-05-30T19:10:40.808Z,16.90
2019-05-30T19:13:08.815Z,16.90
2019-05-30T19:15:37.681Z,16.90
2019-05-30T19:18:04.907Z,16.90
2019-05-30T19:20:33.972Z,16.60
2019-05-30T19:23:01.734Z,16.60
2019-05-30T19:25:29.788Z,16.60
2019-05-30T19:27:57.827Z,16.50
2019-05-30T19:30:26.441Z,16.50
2019-05-30T19:32:53.848Z,16.40
2019-05-30T19:35:22.699Z,16.40
2019-05-30T19:37:50.768Z,16.30
2019-05-30T19:40:18.810Z,16.30
2019-05-30T19:42:46.840Z,16.30
2019-05-30T19:45:15.643Z,16.30
2019-05-30T19:47:44.430Z,16.30
2019-05-30T19:50:12.515Z,16.30
2019-05-30T19:52:41.280Z,16.20
2019-05-30T19:55:10.084Z,16.20
2019-05-30T19:57:39.889Z,16.10
2019-05-30T20:00:06.921Z,16.10
2019-05-30T20:02:36.127Z,16.10
2019-05-30T20:05:04.528Z,16.10
2019-05-30T20:07:32.565Z,16.10
2019-05-30T20:10:02.122Z,15.90
2019-05-30T20:12:30.601Z,15.90
2019-05-30T20:14:58.212Z,15.90
2019-05-30T20:17:29.943Z,15.90
2019-05-30T20:19:55.081Z,15.90
2019-05-30T20:22:23.120Z,15.90
2019-05-30T20:24:52.393Z,15.90
2019-05-30T20:27:21.237Z,15.80
2019-05-30T20:29:49.271Z,15.80
2019-05-30T20:32:17.266Z,15.80
2019-05-30T20:34:47.073Z,15.60
2019-05-30T20:37:14.096Z,15.70
2019-05-30T20:39:42.927Z,15.60
2019-05-30T20:42:19.115Z,15.80
2019-05-30T20:44:38.947Z,15.70
2019-05-30T20:47:06.964Z,15.80
2019-05-30T20:49:35.153Z,15.80
2019-05-30T20:52:03.798Z,15.70
2019-05-30T20:54:31.829Z,15.70
2019-05-30T20:56:59.891Z,15.60
2019-05-30T20:59:27.990Z,15.60
2019-05-30T21:01:56.814Z,15.50
2019-05-30T21:04:24.837Z,15.50
2019-05-30T21:06:53.642Z,15.40
2019-05-30T21:09:28.932Z,15.40
2019-05-30T21:11:49.661Z,15.30
2019-05-30T21:14:18.461Z,15.20
2019-05-30T21:16:47.295Z,15.20
2019-05-30T21:19:15.344Z,15.10
2019-05-30T21:21:44.289Z,15.10
2019-05-30T21:24:11.430Z,15.00
2019-05-30T21:26:40.614Z,14.80
2019-05-30T21:29:07.542Z,14.70
2019-05-30T21:31:37.194Z,14.60
2019-05-30T21:34:04.426Z,14.60
2019-05-30T21:36:32.404Z,14.60
2019-05-30T21:39:00.429Z,14.60
2019-05-30T21:41:28.469Z,14.60
2019-05-30T21:43:57.270Z,14.60
2019-05-30T21:46:25.327Z,14.60
2019-05-30T21:48:54.121Z,14.50
2019-05-30T21:51:22.145Z,14.50
2019-05-30T21:53:50.211Z,14.50
2019-05-30T21:56:18.224Z,14.50
2019-05-30T21:58:46.418Z,14.60
2019-05-30T22:01:32.090Z,14.60
2019-05-30T22:04:00.871Z,14.60
2019-05-30T22:06:29.672Z,14.60
2019-05-30T22:08:57.717Z,14.60
2019-05-30T22:11:26.524Z,14.50
2019-05-30T22:13:54.605Z,14.50
2019-05-30T22:16:22.613Z,14.50
2019-05-30T22:18:50.687Z,14.50
2019-05-30T22:21:18.707Z,14.30
2019-05-30T22:23:46.743Z,14.20
2019-05-30T22:26:14.769Z,14.30
2019-05-30T22:28:42.849Z,14.30
2019-05-30T22:31:10.903Z,14.20
2019-05-30T22:33:38.939Z,14.20
2019-05-30T22:36:07.720Z,14.20
2019-05-30T22:38:36.548Z,14.30
2019-05-30T22:41:04.601Z,14.30
2019-05-30T22:43:32.609Z,14.30
2019-05-30T22:46:00.625Z,14.20
2019-05-30T22:48:29.428Z,14.20
2019-05-30T22:50:57.460Z,14.20
2019-05-30T22:53:25.473Z,14.20
2019-05-30T22:55:53.666Z,14.30
2019-05-30T22:58:21.542Z,14.10
2019-05-30T23:00:49.929Z,14.10
2019-05-30T23:03:17.572Z,14.20
2019-05-30T23:05:45.597Z,14.30
2019-05-30T23:08:13.669Z,14.30
2019-05-30T23:10:42.519Z,14.40
2019-05-30T23:13:10.549Z,14.40
2019-05-30T23:15:38.581Z,14.40
2019-05-30T23:18:06.610Z,14.30
2019-05-30T23:20:34.647Z,14.30
2019-05-30T23:23:02.677Z,14.50
2019-05-30T23:25:30.709Z,14.50
2019-05-30T23:27:58.729Z,14.40
2019-05-30T23:30:27.584Z,14.40
2019-05-30T23:32:56.324Z,14.40
2019-05-30T23:35:23.609Z,14.40
2019-05-30T23:37:52.975Z,14.30
2019-05-30T23:40:19.709Z,14.30
2019-05-30T23:42:48.961Z,14.30
2019-05-30T23:45:16.566Z,14.30
2019-05-30T23:47:45.357Z,14.10
2019-05-30T23:50:14.160Z,14.00
2019-05-30T23:52:42.180Z,14.00
2019-05-30T23:55:10.217Z,14.10
2019-05-30T23:57:38.246Z,14.10
